createdAt,value
2017-09-25T00:00:03.471Z,11.8
2017-09-25T00:01:02.775Z,11.8
2017-09-25T00:02:02.072Z,11.8
2017-09-25T00:03:01.120Z,11.9
2017-09-25T00:04:00.548Z,11.9
2017-09-25T00:04:59.347Z,11.9
2017-09-25T00:05:58.767Z,11.8
2017-09-25T00:06:58.195Z,11.8
2017-09-25T00:07:56.743Z,11.8
2017-09-25T00:08:56.294Z,11.8
2017-09-25T00:09:55.469Z,11.8
2017-09-25T00:10:54.768Z,11.8
2017-09-25T00:11:54.071Z,11.8
2017-09-25T00:13:52.002Z,11.8
2017-09-25T00:14:51.185Z,11.8
2017-09-25T00:15:50.359Z,11.8
2017-09-25T00:16:49.535Z,11.8
2017-09-25T00:17:49.337Z,11.8
2017-09-25T00:18:48.011Z,11.8
2017-09-25T00:19:47.052Z,11.7
2017-09-25T00:20:46.849Z,11.7
2017-09-25T00:21:45.642Z,11.7
2017-09-25T00:22:44.940Z,11.7
2017-09-25T00:23:43.862Z,11.7
2017-09-25T00:24:43.801Z,11.7
2017-09-25T00:25:42.850Z,11.7
2017-09-25T00:26:41.516Z,11.7
2017-09-25T00:27:40.813Z,11.7
2017-09-25T00:28:39.979Z,11.7
2017-09-25T00:29:39.272Z,11.6
2017-09-25T00:30:38.694Z,11.6
2017-09-25T00:32:36.752Z,11.6
2017-09-25T00:33:36.090Z,11.6
2017-09-25T00:34:35.008Z,11.6
2017-09-25T00:35:34.182Z,11.6
2017-09-25T00:37:33.121Z,11.6
2017-09-25T00:38:31.784Z,11.6
2017-09-25T00:39:30.960Z,11.6
2017-09-25T00:40:30.132Z,11.6
2017-09-25T00:41:29.558Z,11.6
2017-09-25T00:42:28.984Z,11.6
2017-09-25T00:43:28.162Z,11.5
2017-09-25T00:44:27.596Z,11.5
2017-09-25T00:45:26.264Z,11.5
2017-09-25T00:46:25.444Z,11.5
2017-09-25T00:47:24.488Z,11.5
2017-09-25T00:48:24.042Z,11.5
2017-09-25T00:49:22.834Z,11.4
2017-09-25T00:50:22.396Z,11.4
2017-09-25T00:51:21.818Z,11.4
2017-09-25T00:52:20.235Z,11.4
2017-09-25T00:53:20.169Z,11.4
2017-09-25T00:54:18.845Z,11.4
2017-09-25T00:55:18.141Z,11.4
2017-09-25T00:56:17.686Z,11.3
2017-09-25T00:56:47.544Z,11.3
2017-09-25T00:57:18.154Z,11.3
2017-09-25T00:57:48.263Z,11.3
2017-09-25T00:59:14.991Z,11.3
2017-09-25T01:00:14.422Z,11.3
2017-09-25T01:01:13.222Z,11.3
2017-09-25T01:02:12.644Z,11.3
2017-09-25T01:03:11.562Z,11.3
2017-09-25T01:04:10.736Z,11.3
2017-09-25T01:05:09.907Z,11.3
2017-09-25T01:06:09.201Z,11.3
2017-09-25T01:08:07.628Z,11.2
2017-09-25T01:09:06.670Z,11.2
2017-09-25T01:10:06.099Z,11.2
2017-09-25T01:11:05.273Z,11.2
2017-09-25T01:12:04.570Z,11.2
2017-09-25T01:13:03.492Z,11.2
2017-09-25T01:14:02.797Z,11.2
2017-09-25T01:15:02.095Z,11.2
2017-09-25T01:16:00.901Z,11.2
2017-09-25T01:16:31.390Z,11.2
2017-09-25T01:17:59.681Z,11.2
2017-09-25T01:18:58.736Z,11.2
2017-09-25T01:20:57.055Z,11.2
2017-09-25T01:21:56.507Z,11.2
2017-09-25T01:22:55.331Z,11.2
2017-09-25T01:23:54.509Z,11.2
2017-09-25T01:24:53.677Z,11.2
2017-09-25T01:25:53.098Z,11.2
2017-09-25T01:26:52.147Z,11.2
2017-09-25T01:27:51.318Z,11.2
2017-09-25T01:28:50.744Z,11.2
2017-09-25T01:29:49.538Z,11.2
2017-09-25T01:30:48.715Z,11.2
2017-09-25T01:31:48.011Z,11.2
2017-09-25T01:32:47.439Z,11.2
2017-09-25T01:33:46.116Z,11.2
2017-09-25T01:34:45.934Z,11.2
2017-09-25T01:35:44.727Z,11.2
2017-09-25T01:37:43.408Z,11.2
2017-09-25T01:38:42.073Z,11.2
2017-09-25T01:39:41.245Z,11.2
2017-09-25T01:40:40.552Z,11.2
2017-09-25T01:41:39.602Z,11.2
2017-09-25T01:42:38.909Z,11.2
2017-09-25T01:43:38.206Z,11.2
2017-09-25T01:44:37.263Z,11.2
2017-09-25T01:45:36.346Z,11.2
2017-09-25T01:46:35.530Z,11.2
2017-09-25T01:47:34.709Z,11.2
2017-09-25T01:48:34.005Z,11.2
2017-09-25T01:49:33.178Z,11.2
2017-09-25T01:51:31.736Z,11.2
2017-09-25T01:52:31.036Z,11.2
2017-09-25T01:53:30.468Z,11.2
2017-09-25T01:54:29.149Z,11.2
2017-09-25T01:55:28.195Z,11.2
2017-09-25T01:56:27.245Z,11.2
2017-09-25T01:57:26.538Z,11.2
2017-09-25T01:57:57.028Z,11.2
2017-09-25T01:58:27.636Z,11.3
2017-09-25T01:58:58.123Z,11.3
2017-09-25T01:59:28.733Z,11.3
2017-09-25T02:00:24.770Z,11.3
2017-09-25T02:01:23.318Z,11.3
2017-09-25T02:02:22.882Z,11.3
2017-09-25T02:03:21.554Z,11.3
2017-09-25T02:04:21.238Z,11.3
2017-09-25T02:05:20.287Z,11.3
2017-09-25T02:06:19.455Z,11.3
2017-09-25T02:07:19.001Z,11.3
2017-09-25T02:08:17.798Z,11.3
2017-09-25T02:09:16.716Z,11.3
2017-09-25T02:10:15.891Z,11.3
2017-09-25T02:11:14.938Z,11.3
2017-09-25T02:12:14.239Z,11.3
2017-09-25T02:14:12.801Z,11.3
2017-09-25T02:15:12.098Z,11.4
2017-09-25T02:16:11.554Z,11.4
2017-09-25T02:17:10.225Z,11.4
2017-09-25T02:18:09.523Z,11.4
2017-09-25T02:19:08.572Z,11.4
2017-09-25T02:20:07.869Z,11.4
2017-09-25T02:21:06.921Z,11.4
2017-09-25T02:22:06.229Z,11.4
2017-09-25T02:24:04.537Z,11.4
2017-09-25T02:25:03.838Z,11.4
2017-09-25T02:26:03.142Z,11.4
2017-09-25T02:27:02.066Z,11.4
2017-09-25T02:28:01.367Z,11.4
2017-09-25T02:29:00.664Z,11.4
2017-09-25T02:30:00.093Z,11.5
2017-09-25T02:30:58.768Z,11.5
2017-09-25T02:31:58.205Z,11.5
2017-09-25T02:32:57.643Z,11.5
2017-09-25T02:33:56.314Z,11.5
2017-09-25T02:34:55.739Z,11.6
2017-09-25T02:35:55.035Z,11.6
2017-09-25T02:36:54.081Z,11.6
2017-09-25T02:37:53.388Z,11.6
2017-09-25T02:38:52.048Z,11.6
2017-09-25T02:39:51.227Z,11.6
2017-09-25T02:40:50.646Z,11.7
2017-09-25T02:41:50.064Z,11.7
2017-09-25T02:42:48.738Z,11.7
2017-09-25T02:43:48.409Z,11.7
2017-09-25T02:44:47.835Z,11.7
2017-09-25T02:45:46.757Z,11.7
2017-09-25T02:46:46.177Z,11.7
2017-09-25T02:47:45.093Z,11.7
2017-09-25T02:48:44.511Z,11.7
2017-09-25T02:49:43.175Z,11.7
2017-09-25T02:50:42.605Z,11.7
2017-09-25T02:51:41.765Z,11.7
2017-09-25T02:52:40.930Z,11.7
2017-09-25T02:53:40.096Z,11.7
2017-09-25T02:54:39.396Z,11.7
2017-09-25T02:55:38.567Z,11.7
2017-09-25T02:56:37.859Z,11.8
2017-09-25T02:57:36.898Z,11.8
2017-09-25T02:58:36.312Z,11.8
2017-09-25T02:59:34.974Z,11.8
2017-09-25T03:00:34.017Z,11.8
2017-09-25T03:01:33.813Z,11.8
2017-09-25T03:02:32.849Z,11.9
2017-09-25T03:03:32.393Z,11.9
2017-09-25T03:04:31.436Z,11.9
2017-09-25T03:05:30.100Z,11.9
2017-09-25T03:06:29.267Z,11.9
2017-09-25T03:08:27.941Z,11.9
2017-09-25T03:09:27.107Z,11.9
2017-09-25T03:10:26.407Z,11.9
2017-09-25T03:11:25.445Z,11.9
2017-09-25T03:12:24.361Z,11.9
2017-09-25T03:13:24.184Z,11.9
2017-09-25T03:14:23.078Z,11.9
2017-09-25T03:14:53.053Z,11.9
2017-09-25T03:15:23.783Z,11.9
2017-09-25T03:16:21.437Z,11.9
2017-09-25T03:16:52.044Z,11.9
2017-09-25T03:17:23.026Z,11.9
2017-09-25T03:19:19.060Z,12
2017-09-25T03:20:18.098Z,12
2017-09-25T03:21:17.143Z,12
2017-09-25T03:22:16.074Z,12
2017-09-25T03:23:15.749Z,12
2017-09-25T03:24:14.786Z,12
2017-09-25T03:25:13.958Z,12
2017-09-25T03:26:13.252Z,12
2017-09-25T03:27:12.792Z,12
2017-09-25T03:28:11.712Z,12.1
2017-09-25T03:29:10.873Z,12.1
2017-09-25T03:30:10.551Z,12.1
2017-09-25T03:31:09.737Z,12.1
2017-09-25T03:32:08.525Z,12.1
2017-09-25T03:33:07.819Z,12.1
2017-09-25T03:34:06.861Z,12.1
2017-09-25T03:35:06.047Z,12.1
2017-09-25T03:36:05.586Z,12.1
2017-09-25T03:37:04.425Z,12.1
2017-09-25T03:38:03.717Z,12.1
2017-09-25T03:39:02.631Z,12.1
2017-09-25T03:40:02.048Z,12.1
2017-09-25T03:41:01.223Z,12.1
2017-09-25T03:42:00.518Z,12.1
2017-09-25T03:42:59.182Z,12.1
2017-09-25T03:43:58.848Z,12.1
2017-09-25T03:44:58.015Z,12.1
2017-09-25T03:45:57.054Z,12.2
2017-09-25T03:46:56.341Z,12.2
2017-09-25T03:48:54.657Z,12.1
2017-09-25T03:49:53.950Z,12.2
2017-09-25T03:50:53.366Z,12.2
2017-09-25T03:51:52.154Z,12.2
2017-09-25T03:52:51.441Z,12.2
2017-09-25T03:53:50.861Z,12.2
2017-09-25T03:54:50.152Z,12.2
2017-09-25T03:55:48.941Z,12.2
2017-09-25T03:56:48.108Z,12.2
2017-09-25T03:57:47.274Z,12.2
2017-09-25T03:59:45.947Z,12.2
2017-09-25T04:00:45.125Z,12.2
2017-09-25T04:01:44.294Z,12.2
2017-09-25T04:02:43.589Z,12.2
2017-09-25T04:03:42.380Z,12.2
2017-09-25T04:04:41.672Z,12.2
2017-09-25T04:05:41.251Z,12.2
2017-09-25T04:06:40.043Z,12.2
2017-09-25T04:07:39.204Z,12.2
2017-09-25T04:08:38.740Z,12.2
2017-09-25T04:09:08.590Z,12.2
2017-09-25T04:09:39.327Z,12.2
2017-09-25T04:10:36.865Z,12.2
2017-09-25T04:11:36.297Z,12.2
2017-09-25T04:12:35.340Z,12.2
2017-09-25T04:13:34.641Z,12.2
2017-09-25T04:14:34.051Z,12.2
2017-09-25T04:15:32.970Z,12.2
2017-09-25T04:16:32.145Z,12.3
2017-09-25T04:17:31.434Z,12.2
2017-09-25T04:18:30.596Z,12.3
2017-09-25T04:20:28.907Z,12.2
2017-09-25T04:21:28.076Z,12.3
2017-09-25T04:22:27.498Z,12.3
2017-09-25T04:24:25.801Z,12.3
2017-09-25T04:25:25.216Z,12.3
2017-09-25T04:26:24.264Z,12.3
2017-09-25T04:28:22.568Z,12.3
2017-09-25T04:29:21.605Z,12.3
2017-09-25T04:30:20.896Z,12.3
2017-09-25T04:31:19.942Z,12.3
2017-09-25T04:32:18.985Z,12.3
2017-09-25T04:33:18.406Z,12.3
2017-09-25T04:34:17.575Z,12.3
2017-09-25T04:35:16.875Z,12.3
2017-09-25T04:36:16.041Z,12.3
2017-09-25T04:37:15.212Z,12.3
2017-09-25T04:40:12.649Z,12.3
2017-09-25T04:43:10.715Z,12.4
2017-09-25T04:44:09.510Z,12.4
2017-09-25T04:45:08.547Z,12.4
2017-09-25T04:46:08.144Z,12.4
2017-09-25T04:47:07.181Z,12.4
2017-09-25T04:48:06.228Z,12.4
2017-09-25T04:49:05.645Z,12.4
2017-09-25T04:50:05.066Z,12.4
2017-09-25T04:51:03.860Z,12.4
2017-09-25T04:52:03.283Z,12.4
2017-09-25T04:53:02.573Z,12.4
2017-09-25T04:54:01.498Z,12.4
2017-09-25T04:55:00.803Z,12.4
2017-09-25T04:55:59.965Z,12.4
2017-09-25T04:56:59.137Z,12.4
2017-09-25T04:57:58.302Z,12.4
2017-09-25T04:58:57.602Z,12.5
2017-09-25T04:59:57.155Z,12.4
2017-09-25T05:00:56.196Z,12.5
2017-09-25T05:01:54.856Z,12.4
2017-09-25T05:02:54.407Z,12.5
2017-09-25T05:03:53.951Z,12.5
2017-09-25T05:04:52.740Z,12.5
2017-09-25T05:05:52.154Z,12.5
2017-09-25T05:06:51.500Z,12.5
2017-09-25T05:07:50.413Z,12.5
2017-09-25T05:08:49.723Z,12.5
2017-09-25T05:09:48.385Z,12.5
2017-09-25T05:10:47.677Z,12.5
2017-09-25T05:11:46.969Z,12.5
2017-09-25T05:12:46.141Z,12.5
2017-09-25T05:13:45.312Z,12.5
2017-09-25T05:14:44.350Z,12.5
2017-09-25T05:15:43.900Z,12.5
2017-09-25T05:16:43.328Z,12.5
2017-09-25T05:17:42.245Z,12.5
2017-09-25T05:18:41.596Z,12.5
2017-09-25T05:19:40.886Z,12.5
2017-09-25T05:20:39.675Z,12.5
2017-09-25T05:21:38.965Z,12.5
2017-09-25T05:22:38.134Z,12.5
2017-09-25T05:23:37.294Z,12.5
2017-09-25T05:24:36.714Z,12.5
2017-09-25T05:25:36.001Z,12.5
2017-09-25T05:26:35.169Z,12.5
2017-09-25T05:28:33.221Z,12.6
2017-09-25T05:29:33.149Z,12.6
2017-09-25T05:30:31.936Z,12.6
2017-09-25T05:31:31.598Z,12.6
2017-09-25T05:32:30.423Z,12.6
2017-09-25T05:35:27.732Z,12.6
2017-09-25T05:37:26.539Z,12.6
2017-09-25T05:38:25.455Z,12.6
2017-09-25T05:39:24.869Z,12.6
2017-09-25T05:40:23.910Z,12.6
2017-09-25T05:41:22.948Z,12.6
2017-09-25T05:42:22.490Z,12.6
2017-09-25T05:43:21.406Z,12.6
2017-09-25T05:44:20.947Z,12.6
2017-09-25T05:45:19.737Z,12.6
2017-09-25T05:46:19.032Z,12.6
2017-09-25T05:47:18.197Z,12.6
2017-09-25T05:48:17.741Z,12.6
2017-09-25T05:49:16.407Z,12.6
2017-09-25T05:50:15.716Z,12.6
2017-09-25T05:51:15.142Z,12.6
2017-09-25T05:52:14.433Z,12.6
2017-09-25T05:53:13.723Z,12.6
2017-09-25T05:55:11.777Z,12.6
2017-09-25T05:57:10.332Z,12.7
2017-09-25T06:00:07.645Z,12.7
2017-09-25T06:01:07.189Z,12.7
2017-09-25T06:02:06.481Z,12.7
2017-09-25T06:03:05.902Z,12.7
2017-09-25T06:04:04.567Z,12.7
2017-09-25T06:05:03.477Z,12.7
2017-09-25T06:06:03.392Z,12.7
2017-09-25T06:07:02.819Z,12.7
2017-09-25T06:08:01.356Z,12.7
2017-09-25T06:09:00.648Z,12.7
2017-09-25T06:09:59.823Z,12.8
2017-09-25T06:10:59.120Z,12.8
2017-09-25T06:11:58.299Z,12.8
2017-09-25T06:12:57.341Z,12.8
2017-09-25T06:13:56.757Z,12.8
2017-09-25T06:14:55.922Z,12.8
2017-09-25T06:15:55.088Z,12.8
2017-09-25T06:16:54.381Z,12.8
2017-09-25T06:17:53.930Z,12.8
2017-09-25T06:18:52.464Z,12.8
2017-09-25T06:21:50.532Z,12.8
2017-09-25T06:22:49.586Z,12.9
2017-09-25T06:23:48.877Z,12.9
2017-09-25T06:25:47.304Z,12.9
2017-09-25T06:26:46.471Z,12.9
2017-09-25T06:27:45.888Z,12.9
2017-09-25T06:28:44.678Z,12.9
2017-09-25T06:29:43.720Z,12.9
2017-09-25T06:30:43.523Z,12.9
2017-09-25T06:31:42.564Z,12.9
2017-09-25T06:32:41.606Z,13
2017-09-25T06:33:41.146Z,13
2017-09-25T06:34:40.436Z,13
2017-09-25T06:36:38.744Z,13
2017-09-25T06:37:38.035Z,13
2017-09-25T06:38:36.694Z,13
2017-09-25T06:39:36.610Z,13
2017-09-25T06:40:35.146Z,13
2017-09-25T06:41:34.693Z,13
2017-09-25T06:42:33.982Z,13
2017-09-25T06:43:32.892Z,13
2017-09-25T06:44:03.242Z,13
2017-09-25T06:44:34.226Z,13
2017-09-25T06:45:31.379Z,13
2017-09-25T06:46:30.548Z,13
2017-09-25T06:47:29.714Z,13
2017-09-25T06:48:28.755Z,13
2017-09-25T06:49:28.299Z,13
2017-09-25T06:50:27.471Z,13
2017-09-25T06:51:26.770Z,13
2017-09-25T06:52:25.936Z,13
2017-09-25T06:53:25.100Z,13
2017-09-25T06:54:24.421Z,13
2017-09-25T06:55:23.710Z,13
2017-09-25T06:56:22.500Z,13
2017-09-25T06:57:22.045Z,13
2017-09-25T06:58:21.455Z,13
2017-09-25T06:59:19.993Z,13
2017-09-25T07:00:19.658Z,13
2017-09-25T07:02:18.213Z,13
2017-09-25T07:03:17.252Z,13.1
2017-09-25T07:04:16.571Z,13.1
2017-09-25T07:06:14.622Z,13.1
2017-09-25T07:07:14.295Z,13.1
2017-09-25T07:08:13.340Z,13.1
2017-09-25T07:09:12.503Z,13.1
2017-09-25T07:10:11.670Z,13.1
2017-09-25T07:11:10.715Z,13.1
2017-09-25T07:16:07.047Z,13.1
2017-09-25T07:17:06.214Z,13.1
2017-09-25T07:20:03.784Z,13.2
2017-09-25T07:22:02.707Z,13.2
2017-09-25T07:24:59.773Z,13.2
2017-09-25T07:25:30.132Z,13.2
2017-09-25T07:26:00.244Z,13.1
2017-09-25T07:26:30.841Z,13.1
2017-09-25T07:28:56.574Z,13.2
2017-09-25T07:31:54.768Z,13.2
2017-09-25T07:32:53.318Z,13.2
2017-09-25T07:39:48.425Z,13.2
2017-09-25T07:40:47.089Z,13.2
2017-09-25T07:41:47.023Z,13.2
2017-09-25T07:42:45.818Z,13.2
2017-09-25T07:43:45.239Z,13.2
2017-09-25T07:46:42.927Z,13.2
2017-09-25T07:47:42.000Z,13.2
2017-09-25T07:48:41.538Z,13.2
2017-09-25T07:49:40.573Z,13.2
2017-09-25T07:50:39.492Z,13.2
2017-09-25T07:51:38.533Z,13.2
2017-09-25T07:54:36.216Z,13.2
2017-09-25T07:56:34.891Z,13.2
2017-09-25T07:57:33.970Z,13.2
2017-09-25T07:59:32.778Z,13.2
2017-09-25T08:00:31.448Z,13.2
2017-09-25T08:01:30.614Z,13.1
2017-09-25T08:04:28.802Z,13.2
2017-09-25T08:05:27.594Z,13.2
2017-09-25T08:07:26.398Z,13.2
2017-09-25T08:07:56.883Z,13.2
2017-09-25T08:08:26.981Z,13.2
2017-09-25T08:09:24.762Z,13.2
2017-09-25T08:13:21.834Z,13.3
2017-09-25T08:14:20.624Z,13.3
2017-09-25T08:15:19.919Z,13.3
2017-09-25T08:16:19.094Z,13.3
2017-09-25T08:22:14.193Z,13.3
2017-09-25T08:24:12.873Z,13.3
2017-09-25T08:25:12.166Z,13.4
2017-09-25T08:26:11.456Z,13.4
2017-09-25T08:27:10.874Z,13.4
2017-09-25T08:28:09.413Z,13.4
2017-09-25T08:30:07.968Z,13.4
2017-09-25T08:31:07.139Z,13.4
2017-09-25T08:34:04.829Z,13.4
2017-09-25T08:36:03.506Z,13.4
2017-09-25T08:38:01.810Z,13.4
2017-09-25T08:40:00.526Z,13.5
2017-09-25T08:40:59.949Z,13.5
2017-09-25T08:41:58.481Z,13.5
2017-09-25T08:42:57.899Z,13.5
2017-09-25T08:44:56.453Z,13.5
2017-09-25T08:46:55.511Z,13.6
2017-09-25T08:47:54.046Z,13.6
2017-09-25T08:48:53.457Z,13.6
2017-09-25T08:49:52.771Z,13.6
2017-09-25T08:51:51.080Z,13.6
2017-09-25T08:53:49.504Z,13.6
2017-09-25T08:54:48.792Z,13.6
2017-09-25T08:55:48.079Z,13.6
2017-09-25T08:56:46.865Z,13.7
2017-09-25T08:58:45.551Z,13.6
2017-09-25T08:59:44.842Z,13.7
2017-09-25T09:01:43.274Z,13.7
2017-09-25T09:02:42.699Z,13.7
2017-09-25T09:03:13.054Z,13.7
2017-09-25T09:04:41.050Z,13.7
2017-09-25T09:05:40.351Z,13.7
2017-09-25T09:07:38.787Z,13.7
2017-09-25T11:26:47.892Z,13.4
2017-09-25T11:35:40.891Z,13.5
2017-09-25T11:58:22.391Z,14
2017-09-25T12:14:10.605Z,14.2
2017-09-25T12:19:06.551Z,14.2
2017-09-25T12:21:04.856Z,14.2
2017-09-25T12:23:03.793Z,14.2
2017-09-25T12:26:00.973Z,14.2
2017-09-25T12:33:55.082Z,14.2
2017-09-25T12:38:50.902Z,14.3
2017-09-25T12:40:49.574Z,14.3
2017-09-25T12:43:47.382Z,14.3
2017-09-25T12:44:46.917Z,14.4
2017-09-25T12:46:45.215Z,14.4
2017-09-25T12:49:42.773Z,14.5
2017-09-25T12:51:40.942Z,14.5
2017-09-25T12:56:37.395Z,14.5
2017-09-25T12:59:34.827Z,14.6
2017-09-25T13:19:19.803Z,15
2017-09-25T13:25:15.523Z,15.2
2017-09-25T13:32:10.123Z,15.3
2017-09-25T13:44:01.280Z,15.6
2017-09-25T13:46:00.088Z,15.5
2017-09-25T13:49:56.659Z,15.5
2017-09-25T13:51:55.463Z,15.5
2017-09-25T13:52:54.881Z,15.6
2017-09-25T13:55:52.692Z,15.6
2017-09-25T13:56:51.724Z,15.6
2017-09-25T14:04:45.834Z,15.6
2017-09-25T14:05:45.123Z,15.6
2017-09-25T14:06:44.407Z,15.6
2017-09-25T14:07:43.446Z,15.6
2017-09-25T14:08:42.871Z,15.6
2017-09-25T14:09:42.281Z,15.6
2017-09-25T14:10:41.335Z,15.6
2017-09-25T14:12:39.882Z,15.6
2017-09-25T14:14:38.302Z,15.6
2017-09-25T14:15:37.461Z,15.7
2017-09-25T14:16:36.753Z,15.8
2017-09-25T14:17:36.297Z,15.9
2017-09-25T14:18:35.464Z,15.9
2017-09-25T14:19:35.023Z,16.1
2017-09-25T14:20:34.062Z,16.1
2017-09-25T14:23:31.502Z,16.4
2017-09-25T14:24:30.793Z,16.5
2017-09-25T14:25:30.464Z,16.6
2017-09-25T14:26:29.251Z,16.6
2017-09-25T14:27:28.536Z,16.7
2017-09-25T14:28:27.947Z,16.7
2017-09-25T14:30:26.498Z,16.8
2017-09-25T14:32:25.175Z,16.7
2017-09-25T14:33:24.713Z,16.7
2017-09-25T14:35:22.887Z,16.7
2017-09-25T14:36:22.051Z,16.7
2017-09-25T14:40:19.259Z,16.7
2017-09-25T14:41:18.800Z,16.7
2017-09-25T14:43:16.982Z,16.6
2017-09-25T14:44:16.148Z,16.6
2017-09-25T14:45:15.756Z,16.6
2017-09-25T14:46:14.803Z,16.6
2017-09-25T14:48:13.478Z,16.6
2017-09-25T14:52:10.417Z,16.4
2017-09-25T15:00:04.659Z,16.3
2017-09-25T15:01:04.320Z,16.3
2017-09-25T15:02:02.977Z,16.2
2017-09-25T15:06:59.939Z,16
2017-09-25T15:08:58.240Z,15.8
2017-09-25T15:09:57.659Z,15.8
2017-09-25T15:10:56.825Z,15.7
2017-09-25T15:13:55.139Z,15.6
2017-09-25T15:14:53.678Z,15.5
2017-09-25T15:15:53.216Z,15.5
2017-09-25T15:16:52.628Z,15.5
2017-09-25T15:17:51.921Z,15.4
2017-09-25T15:18:50.963Z,15.4
2017-09-25T15:19:50.125Z,15.4
2017-09-25T15:20:49.671Z,15.3
2017-09-25T15:21:48.957Z,15.3
2017-09-25T15:22:48.120Z,15.3
2017-09-25T15:23:47.292Z,15.2
2017-09-25T15:24:47.082Z,15.2
2017-09-25T15:25:17.427Z,15.2
2017-09-25T15:25:47.657Z,15.2
2017-09-25T15:26:18.383Z,15.2
2017-09-25T15:27:44.467Z,15.1
2017-09-25T15:28:43.761Z,15.1
2017-09-25T15:29:43.172Z,15.1
2017-09-25T15:30:42.205Z,15.1
2017-09-25T15:31:41.490Z,15
2017-09-25T15:32:40.650Z,15
2017-09-25T15:33:39.936Z,15
2017-09-25T15:34:39.346Z,15
2017-09-25T15:35:38.390Z,15
2017-09-25T15:36:38.189Z,15
2017-09-25T15:38:36.990Z,14.9
2017-09-25T15:39:35.911Z,14.9
2017-09-25T15:40:34.833Z,14.9
2017-09-25T15:46:30.560Z,14.8
2017-09-25T15:48:29.112Z,14.8
2017-09-25T15:51:27.319Z,14.8
2017-09-25T15:53:25.369Z,14.7
2017-09-25T15:55:23.812Z,14.7
2017-09-25T15:56:23.226Z,14.7
2017-09-25T15:57:22.268Z,14.7
2017-09-25T15:58:21.965Z,14.7
2017-09-25T15:59:21.626Z,14.7
2017-09-25T16:00:20.410Z,14.7
2017-09-25T16:01:19.579Z,14.7
2017-09-25T16:02:18.995Z,14.7
2017-09-25T16:03:18.191Z,14.7
2017-09-25T16:04:17.589Z,14.7
2017-09-25T16:06:15.511Z,14.7
2017-09-25T16:08:14.561Z,14.7
2017-09-25T16:09:13.472Z,14.7
2017-09-25T16:10:12.633Z,14.7
2017-09-25T16:11:12.175Z,14.7
2017-09-25T16:12:11.339Z,14.6
2017-09-25T16:15:09.532Z,14.6
2017-09-25T16:17:07.580Z,14.6
2017-09-25T16:18:06.750Z,14.6
2017-09-25T16:19:06.163Z,14.6
2017-09-25T16:20:05.205Z,14.6
2017-09-25T16:21:04.368Z,14.6
2017-09-25T16:22:04.156Z,14.6
2017-09-25T16:23:03.699Z,14.6
2017-09-25T16:24:02.358Z,14.6
2017-09-25T16:26:01.029Z,14.5
2017-09-25T16:27:00.325Z,14.5
2017-09-25T16:27:30.806Z,14.5
2017-09-25T16:28:01.413Z,14.5
2017-09-25T16:28:58.820Z,14.5
2017-09-25T16:29:58.107Z,14.5
2017-09-25T16:30:57.273Z,14.5
2017-09-25T16:32:56.072Z,14.5
2017-09-25T16:33:54.982Z,14.5
2017-09-25T16:34:54.145Z,14.4
2017-09-25T16:35:53.306Z,14.4
2017-09-25T16:36:52.732Z,14.4
2017-09-25T16:37:52.012Z,14.4
2017-09-25T16:39:50.568Z,14.4
2017-09-25T16:48:43.816Z,14.2
2017-09-25T16:49:42.976Z,14.2
2017-09-25T16:51:41.523Z,14.2
2017-09-25T16:52:40.932Z,14.2
2017-09-25T16:53:40.093Z,14.1
2017-09-25T16:54:39.382Z,14.1
2017-09-25T16:55:38.795Z,14.1
2017-09-25T16:56:38.091Z,14.1
2017-09-25T16:57:37.263Z,14.1
2017-09-25T17:01:34.331Z,14
2017-09-25T17:02:33.118Z,14
2017-09-25T17:03:32.532Z,14
2017-09-25T17:08:28.615Z,14
2017-09-25T17:09:27.775Z,14
2017-09-25T17:18:21.031Z,13.9
2017-09-25T17:23:17.489Z,13.9
2017-09-25T17:26:14.795Z,13.8
2017-09-25T17:27:14.460Z,13.8
2017-09-25T17:28:13.627Z,13.8
2017-09-25T17:30:12.183Z,13.8
2017-09-25T17:31:11.602Z,13.8
2017-09-25T17:32:10.765Z,13.8
2017-09-25T17:33:10.203Z,13.8
2017-09-25T17:34:08.856Z,13.8
2017-09-25T17:36:07.532Z,13.8
2017-09-25T17:39:04.965Z,13.8
2017-09-25T17:41:03.390Z,13.7
2017-09-25T17:42:03.056Z,13.8
2017-09-25T17:43:02.227Z,13.7
2017-09-25T17:44:01.142Z,13.7
2017-09-25T17:45:00.807Z,13.7
2017-09-25T17:47:58.118Z,13.7
2017-09-25T17:48:57.417Z,13.7
2017-09-25T17:51:55.364Z,13.7
2017-09-25T17:52:54.790Z,13.7
2017-09-25T17:53:54.209Z,13.7
2017-09-25T17:54:53.003Z,13.7
2017-09-25T17:55:52.561Z,13.7
2017-09-25T17:57:50.877Z,13.7
2017-09-25T18:00:48.315Z,13.7
2017-09-25T18:01:47.866Z,13.7
2017-09-25T18:02:46.661Z,13.6
2017-09-25T18:05:44.733Z,13.6
2017-09-25T18:06:43.900Z,13.6
2017-09-25T18:07:42.937Z,13.6
2017-09-25T18:08:42.354Z,13.6
2017-09-25T18:09:41.894Z,13.6
2017-09-25T18:10:40.560Z,13.6
2017-09-25T18:12:39.367Z,13.6
2017-09-25T18:13:38.158Z,13.5
2017-09-25T18:17:35.237Z,13.5
2017-09-25T18:19:33.665Z,13.5
2017-09-25T18:21:32.216Z,13.5
2017-09-25T18:35:21.406Z,13.4
2017-09-25T18:40:17.870Z,13.3
2017-09-25T18:43:15.557Z,13.3
2017-09-25T18:47:12.631Z,13.3
2017-09-25T18:48:11.289Z,13.3
2017-09-25T18:50:10.042Z,13.3
2017-09-25T18:51:09.359Z,13.3
2017-09-25T18:53:07.536Z,13.3
2017-09-25T18:54:06.827Z,13.3
2017-09-25T18:57:04.399Z,13.3
2017-09-25T18:57:34.756Z,13.3
2017-09-25T19:01:01.378Z,13.3
2017-09-25T19:04:58.452Z,13.2
2017-09-25T19:08:55.526Z,13.2
2017-09-25T19:11:53.087Z,13.2
2017-09-25T19:13:51.517Z,13.2
2017-09-25T19:15:49.572Z,13.2
2017-09-25T19:16:48.991Z,13.2
2017-09-25T19:17:48.160Z,13.2
2017-09-25T19:18:47.269Z,13.3
2017-09-25T19:19:46.752Z,13.2
2017-09-25T19:21:45.424Z,13.2
2017-09-25T19:22:44.217Z,13.2
2017-09-25T19:23:43.512Z,13.2
2017-09-25T19:24:42.811Z,13.2
2017-09-25T19:25:42.111Z,13.2
2017-09-25T19:26:41.655Z,13.2
2017-09-25T19:27:40.227Z,13.2
2017-09-25T19:28:39.638Z,13.2
2017-09-25T19:29:38.855Z,13.2
2017-09-25T19:30:38.149Z,13.2
2017-09-25T19:31:37.523Z,13.2
2017-09-25T19:32:36.819Z,13.2
2017-09-25T19:33:36.107Z,13.2
2017-09-25T19:34:34.900Z,13.2
2017-09-25T19:35:34.069Z,13.2
2017-09-25T19:36:04.808Z,13.2
2017-09-25T19:36:35.044Z,13.2
2017-09-25T19:37:05.400Z,13.2
2017-09-25T19:37:35.503Z,13.2
2017-09-25T19:38:31.551Z,13.2
2017-09-25T19:40:30.264Z,13.2
2017-09-25T19:41:29.689Z,13.2
2017-09-25T19:42:29.000Z,13.2
2017-09-25T19:45:26.888Z,13.2
2017-09-25T19:46:25.681Z,13.2
2017-09-25T19:47:24.973Z,13.2
2017-09-25T19:48:24.151Z,13.2
2017-09-25T19:49:23.319Z,13.2
2017-09-25T19:51:21.782Z,13.2
2017-09-25T19:54:19.624Z,13.2
2017-09-25T19:55:18.799Z,13.2
2017-09-25T19:57:16.975Z,13.2
2017-09-25T19:59:15.664Z,13.1
2017-09-25T20:00:14.954Z,13.1
2017-09-25T20:02:13.134Z,13.1
2017-09-25T20:04:11.471Z,13.1
2017-09-25T20:06:10.431Z,13.1
2017-09-25T20:09:08.122Z,13.1
2017-09-25T20:11:06.179Z,13.1
2017-09-25T20:12:05.470Z,13.1
2017-09-25T20:13:04.765Z,13.1
2017-09-25T20:14:03.805Z,13.1
2017-09-25T20:19:00.048Z,13.1
2017-09-25T20:19:30.934Z,13.1
2017-09-25T20:20:01.082Z,13.1
2017-09-25T20:20:58.484Z,13.1
2017-09-25T20:21:57.778Z,13.1
2017-09-25T20:23:55.961Z,13.1
2017-09-25T20:24:54.874Z,13.1
2017-09-25T20:25:54.418Z,13.1
2017-09-25T20:26:53.711Z,13.1
2017-09-25T20:27:52.898Z,13.1
2017-09-25T20:28:52.213Z,13.1
2017-09-25T20:29:22.952Z,13.1
2017-09-25T20:29:53.053Z,13.1
2017-09-25T20:30:50.877Z,13.1
2017-09-25T20:31:50.453Z,13.1
2017-09-25T20:32:49.288Z,13.1
2017-09-25T20:33:48.072Z,13
2017-09-25T20:34:47.241Z,13
2017-09-25T20:38:44.315Z,13
2017-09-25T20:39:43.617Z,13
2017-09-25T20:40:42.779Z,13
2017-09-25T20:42:41.357Z,12.9
2017-09-25T20:43:40.434Z,12.9
2017-09-25T20:44:39.748Z,12.9
2017-09-25T20:46:37.798Z,12.9
2017-09-25T20:48:36.480Z,12.9
2017-09-25T20:49:35.782Z,12.9
2017-09-25T20:50:35.071Z,12.8
2017-09-25T20:51:34.236Z,12.8
2017-09-25T20:53:32.580Z,12.8
2017-09-25T20:55:31.386Z,12.8
2017-09-25T20:56:30.297Z,12.7
2017-09-25T21:02:25.519Z,12.7
2017-09-25T21:03:25.067Z,12.6
2017-09-25T21:04:23.604Z,12.6
2017-09-25T21:05:23.269Z,12.6
2017-09-25T21:09:20.100Z,12.6
2017-09-25T21:10:19.144Z,12.5
2017-09-25T21:11:18.687Z,12.5
2017-09-25T21:13:16.490Z,12.5
2017-09-25T21:14:16.161Z,12.5
2017-09-25T21:15:15.073Z,12.5
2017-09-25T21:16:14.240Z,12.4
2017-09-25T21:17:13.783Z,12.5
2017-09-25T21:18:13.201Z,12.4
2017-09-25T21:19:12.246Z,12.4
2017-09-25T21:20:11.419Z,12.4
2017-09-25T21:21:10.973Z,12.4
2017-09-25T21:22:09.637Z,12.4
2017-09-25T21:23:09.063Z,12.4
2017-09-25T21:24:08.360Z,12.4
2017-09-25T21:25:07.531Z,12.4
2017-09-25T21:26:06.703Z,12.5
2017-09-25T21:27:05.991Z,12.5
2017-09-25T21:28:04.911Z,12.5
2017-09-25T21:29:04.346Z,12.5
2017-09-25T21:30:03.390Z,12.5
2017-09-25T21:31:02.568Z,12.5
2017-09-25T21:32:01.986Z,12.5
2017-09-25T21:34:00.167Z,12.5
2017-09-25T21:34:59.472Z,12.5
2017-09-25T21:35:58.897Z,12.6
2017-09-25T21:36:58.068Z,12.6
2017-09-25T21:37:57.494Z,12.7
2017-09-25T21:38:56.286Z,12.7